East Dover, Vermont
Current Conditions -  °F | °C
As of 7:54 AM on Thursday 30 Oct 2014 (Local Time) from KDDH Reporting Station
Overcast Overcast  
Wind Chill: 41°   Ceiling: 3400
Heat Index: 46°   Visibility: 10mi
Dew Point: 39°   Wind: 9mph
Humidity: 76%   Direction: 260°W
Pressure: 29.95"   Gusts: NA
Location:  42.95°N, 72.77°W
Report Text: KDDH 301154Z AUTO 26008KT 10SM BKN034 OVC044 08/04 A2995 RMK AO2 SLP143 70010 T00780039 10089 20067 53015
Loading
Personal Weather Stations






























Interactive Weather Map
Tropical Storm Tracking
New forecast layout! Learn more

10-Day Weather Forecast

Advertisements
Track Severe Weather on mobile